Time;durP1;ratioP1;P1;durP2;ratioP2;P2;SDS_P1;SDS_P2;PMS_P1;PMS_P2;Temp;Humidity;BMP_temperature;BMP_pressure;BME280_temperature;BME280_humidity;BME280_pressure;Samples;Min_cycle;Max_cycle;Signal;HPM_P1;HPM_P2
2022/04/07 00:02:44;;;;;;;3.65;1.35;;;;;;;16.67;54.53;95474.78;10390775;28;20315;-21
2022/04/07 00:07:45;;;;;;;2.92;1.40;;;;;;;16.66;54.64;95467.19;10389066;28;20050;-23
2022/04/07 00:12:46;;;;;;;2.42;0.90;;;;;;;16.68;56.47;95476.44;10392928;28;20037;-21
2022/04/07 00:17:46;;;;;;;2.78;1.42;;;;;;;16.67;61.74;95468.88;10382587;28;20076;-22
2022/04/07 00:22:47;;;;;;;2.47;1.13;;;;;;;16.70;61.55;95469.66;10389819;28;20304;-21
2022/04/07 00:27:50;;;;;;;1.55;1.00;;;;;;;16.70;56.52;95469.66;10390289;28;20127;-22
2022/04/07 00:32:50;;;;;;;2.38;1.00;;;;;;;16.68;54.68;95466.34;10399053;28;20037;-23
2022/04/07 00:37:50;;;;;;;2.25;1.08;;;;;;;16.67;54.85;95459.63;10391479;28;20133;-22
2022/04/07 00:42:52;;;;;;;2.10;1.13;;;;;;;16.67;54.61;95451.19;10388620;28;20065;-23
2022/04/07 00:47:53;;;;;;;3.33;1.10;;;;;;;16.65;54.64;95452.91;10388815;28;20277;-22
2022/04/07 00:52:59;;;;;;;0.90;0.60;;;;;;;16.68;54.36;95430.97;10392517;28;20401;-22
2022/04/07 00:58:01;;;;;;;2.58;1.00;;;;;;;16.67;54.54;95424.25;10396420;28;20299;-22
2022/04/07 01:03:01;;;;;;;2.03;1.30;;;;;;;16.65;54.80;95417.53;10398106;28;20048;-22
2022/04/07 01:08:01;;;;;;;1.60;1.00;;;;;;;16.65;54.90;95420.06;10396021;28;20025;-21
2022/04/07 01:13:02;;;;;;;1.77;1.27;;;;;;;16.64;54.16;95404.06;10396841;28;20534;-21
2022/04/07 01:18:03;;;;;;;1.73;1.00;;;;;;;16.65;54.40;95393.09;10392059;28;20041;-22
2022/04/07 01:23:05;;;;;;;1.48;1.00;;;;;;;16.65;56.57;95405.75;10392153;28;20029;-22
2022/04/07 01:28:05;;;;;;;3.47;1.05;;;;;;;16.66;61.56;95394.78;10397160;28;20017;-22
2022/04/07 01:33:06;;;;;;;4.77;1.47;;;;;;;16.71;60.94;95400.59;10403940;28;20069;-23
2022/04/07 01:38:06;;;;;;;2.22;1.45;;;;;;;16.69;56.40;95397.25;10397684;28;20712;-22
2022/04/07 01:43:09;;;;;;;1.00;0.90;;;;;;;16.66;55.26;95387.19;10396038;28;20030;-22
2022/04/07 01:48:10;;;;;;;0.95;0.73;;;;;;;16.68;54.95;95375.38;10394398;28;20084;-22
2022/04/07 01:53:12;;;;;;;1.27;0.70;;;;;;;16.67;54.67;95394.72;10397452;28;20029;-21
2022/04/07 01:58:12;;;;;;;1.15;0.70;;;;;;;16.67;54.56;95373.69;10390692;28;20391;-22
2022/04/07 02:03:13;;;;;;;0.90;0.70;;;;;;;16.66;54.51;95374.56;10397952;28;20037;-22
2022/04/07 02:08:13;;;;;;;1.00;0.80;;;;;;;16.65;54.68;95372.06;10392729;28;20129;-22
2022/04/07 02:13:14;;;;;;;1.43;1.00;;;;;;;16.66;54.56;95381.28;10393202;28;20452;-22
2022/04/07 02:18:14;;;;;;;1.90;1.02;;;;;;;16.59;54.42;95355.28;10389219;28;20033;-22
2022/04/07 02:23:15;;;;;;;1.40;1.03;;;;;;;16.65;54.71;95357.75;10394176;28;20494;-23
2022/04/07 02:28:15;;;;;;;1.70;0.90;;;;;;;16.57;54.36;95335.94;10395089;28;20037;-22
2022/04/07 02:33:16;;;;;;;3.50;0.93;;;;;;;16.66;57.37;95341.72;10397534;28;20113;-22
2022/04/07 02:38:16;;;;;;;2.72;0.75;;;;;;;16.67;61.34;95339.16;10392226;28;20079;-23
2022/04/07 02:43:16;;;;;;;1.37;0.73;;;;;;;16.67;59.94;95338.31;10397197;28;20034;-22
2022/04/07 02:48:17;;;;;;;0.93;0.70;;;;;;;16.69;55.80;95323.16;10388170;28;20079;-22
2022/04/07 02:53:17;;;;;;;1.70;0.95;;;;;;;16.68;54.69;95319.78;10395122;28;20337;-23
2022/04/07 02:58:18;;;;;;;1.90;0.83;;;;;;;16.69;54.53;95308.00;10387566;28;20553;-22
2022/04/07 03:03:18;;;;;;;1.50;0.73;;;;;;;16.68;54.69;95302.09;10400635;28;20035;-22
2022/04/07 03:08:18;;;;;;;1.23;0.70;;;;;;;16.67;54.61;95292.84;10391142;28;20030;-22
2022/04/07 03:13:19;;;;;;;0.97;0.60;;;;;;;16.66;54.50;95286.13;10372926;28;20075;-21
2022/04/07 03:18:19;;;;;;;1.20;0.70;;;;;;;16.66;54.43;95276.03;10385346;28;20795;-21
2022/04/07 03:23:20;;;;;;;1.73;0.80;;;;;;;16.66;54.91;95276.03;10391824;28;20087;-22
2022/04/07 03:28:20;;;;;;;1.37;0.90;;;;;;;16.65;54.64;95258.34;10392388;28;20025;-22
2022/04/07 03:33:21;;;;;;;1.27;0.93;;;;;;;16.66;54.63;95255.81;10390903;28;20347;-22
2022/04/07 03:38:21;;;;;;;1.63;0.80;;;;;;;16.66;55.03;95253.28;10395720;28;20034;-23
2022/04/07 03:43:21;;;;;;;2.27;0.93;;;;;;;16.65;58.10;95228.88;10387715;28;20362;-23
2022/04/07 03:48:22;;;;;;;2.00;1.10;;;;;;;16.64;60.62;95216.25;10390452;28;20369;-22
2022/04/07 03:53:22;;;;;;;1.63;1.00;;;;;;;16.68;56.96;95218.72;10385575;28;20034;-23
2022/04/07 03:58:25;;;;;;;0.80;0.67;;;;;;;16.70;54.71;95211.94;10389470;28;20034;-22
2022/04/07 04:03:25;;;;;;;0.57;0.40;;;;;;;16.71;54.75;95203.50;10388104;28;20118;-22
2022/04/07 04:08:25;;;;;;;1.37;0.60;;;;;;;16.73;54.92;95206.84;10389081;28;20118;-21
2022/04/07 04:13:28;;;;;;;1.55;0.80;;;;;;;16.73;54.56;95206.84;10387635;28;20040;-22
2022/04/07 04:18:28;;;;;;;2.30;0.60;;;;;;;16.74;54.30;95211.03;10386063;28;20041;-21
2022/04/07 04:23:29;;;;;;;2.07;0.87;;;;;;;16.77;54.44;95218.56;10385443;28;20030;-22
2022/04/07 04:28:29;;;;;;;1.27;0.80;;;;;;;16.76;55.30;95216.88;10392614;28;20028;-22
2022/04/07 04:33:30;;;;;;;1.27;0.70;;;;;;;16.78;54.77;95205.91;10387720;28;20144;-22
2022/04/07 04:38:30;;;;;;;1.45;0.80;;;;;;;16.77;54.72;95198.34;10391035;28;20043;-22
2022/04/07 04:43:30;;;;;;;1.47;0.80;;;;;;;16.68;54.92;95183.34;10389663;28;20040;-22
2022/04/07 04:48:31;;;;;;;1.17;0.70;;;;;;;16.73;54.85;95215.25;10382433;28;20498;-22
2022/04/07 04:53:31;;;;;;;2.33;0.97;;;;;;;16.77;56.26;95193.28;10392418;28;20091;-23
2022/04/07 04:58:31;;;;;;;3.30;1.52;;;;;;;16.77;57.65;95198.34;10390671;28;20396;-22
2022/04/07 05:03:32;;;;;;;3.60;0.90;;;;;;;16.77;54.33;95192.47;10391495;28;20029;-21
2022/04/07 05:08:32;;;;;;;1.47;0.73;;;;;;;16.74;54.89;95193.34;10387338;28;20676;-22
2022/04/07 05:13:32;;;;;;;1.23;0.70;;;;;;;16.75;54.82;95184.91;10385535;28;20327;-22
2022/04/07 05:18:34;;;;;;;3.38;1.25;;;;;;;16.72;54.40;95177.38;10385172;28;20037;-23
2022/04/07 05:23:34;;;;;;;5.45;0.77;;;;;;;16.75;54.98;95172.28;10390582;28;20040;-21
2022/04/07 05:28:34;;;;;;;2.17;0.67;;;;;;;16.77;54.52;95175.59;10387303;28;20508;-22
2022/04/07 05:33:35;;;;;;;4.63;1.60;;;;;;;16.74;55.50;95179.00;10396156;28;20497;-21
2022/04/07 05:38:35;;;;;;;1.70;0.73;;;;;;;16.73;54.21;95155.47;10384523;28;20300;-22
2022/04/07 05:43:35;;;;;;;4.77;1.17;;;;;;;16.74;54.58;95173.13;10392444;28;20551;-21
2022/04/07 05:48:36;;;;;;;2.30;1.00;;;;;;;16.74;54.28;95163.84;10389083;28;20299;-22
2022/04/07 05:53:36;;;;;;;4.67;0.90;;;;;;;16.72;54.21;95167.28;10404675;28;20034;-21
2022/04/07 05:58:37;;;;;;;2.70;1.07;;;;;;;16.74;54.00;95160.50;10393659;28;20037;-22
2022/04/07 06:03:37;;;;;;;8.67;1.70;;;;;;;16.74;56.66;95160.50;10386352;28;20101;-22
2022/04/07 06:08:37;;;;;;;6.53;1.57;;;;;;;16.75;57.81;95159.63;10393311;28;20021;-22
2022/04/07 06:13:38;;;;;;;5.18;0.80;;;;;;;16.76;54.73;95158.78;10391874;28;20343;-23
2022/04/07 06:18:39;;;;;;;1.50;0.80;;;;;;;16.76;54.06;95151.19;10390539;28;20386;-22
2022/04/07 06:23:39;;;;;;;2.97;0.87;;;;;;;16.74;54.23;95138.56;10394427;28;20405;-23
2022/04/07 06:28:41;;;;;;;3.28;0.77;;;;;;;16.75;53.97;95150.34;10393544;28;20445;-22
2022/04/07 06:33:41;;;;;;;3.90;0.75;;;;;;;16.73;54.11;95148.72;10396853;28;20069;-22
2022/04/07 06:38:42;;;;;;;2.57;1.03;;;;;;;16.73;54.21;95141.16;10397103;28;20462;-23
2022/04/07 06:43:42;;;;;;;3.43;0.70;;;;;;;16.74;54.49;95142.81;10388109;28;20088;-23
2022/04/07 06:48:43;;;;;;;5.13;0.90;;;;;;;16.73;54.10;95131.84;10398194;28;20315;-24
2022/04/07 06:53:44;;;;;;;1.33;0.88;;;;;;;16.71;53.93;95132.75;10383397;28;20041;-22
2022/04/07 06:58:44;;;;;;;1.80;0.83;;;;;;;16.73;54.01;95118.41;10390819;28;20026;-22
2022/04/07 07:03:44;;;;;;;1.77;0.80;;;;;;;16.75;53.91;95114.16;10388797;28;20113;-22
2022/04/07 07:08:45;;;;;;;2.00;0.70;;;;;;;16.73;54.18;95107.44;10384164;28;20037;-22
2022/04/07 07:13:45;;;;;;;1.80;1.10;;;;;;;16.76;56.66;95105.72;10392841;28;20044;-23
2022/04/07 07:18:46;;;;;;;3.20;0.87;;;;;;;16.76;57.22;95110.75;10384252;28;20042;-23
2022/04/07 07:23:46;;;;;;;1.00;0.70;;;;;;;16.78;54.38;95101.44;10390618;28;20484;-21
2022/04/07 07:28:47;;;;;;;1.03;0.63;;;;;;;16.77;54.21;95098.97;10392436;28;20078;-22
2022/04/07 07:33:48;;;;;;;1.50;1.00;;;;;;;16.75;53.77;95082.13;10393414;28;20099;-22
2022/04/07 07:38:48;;;;;;;3.20;0.90;;;;;;;16.76;54.48;95060.22;10392172;28;20083;-22
2022/04/07 07:43:49;;;;;;;2.30;0.70;;;;;;;16.75;54.04;95071.19;10394809;28;20090;-21
2022/04/07 07:48:50;;;;;;;49.03;5.47;;;;;;;16.70;55.00;95054.47;10390172;28;20033;-22
2022/04/07 07:53:50;;;;;;;7.33;1.73;;;;;;;16.69;54.67;95080.59;10392142;28;20103;-22
2022/04/07 07:58:50;;;;;;;3.80;1.13;;;;;;;16.66;54.67;95068.84;10386083;28;20033;-22
2022/04/07 08:03:51;;;;;;;7.63;0.80;;;;;;;16.65;54.23;95054.56;10392098;28;20041;-21
2022/04/07 08:08:51;;;;;;;3.67;1.07;;;;;;;16.59;54.41;95036.97;10388811;28;20084;-22
2022/04/07 08:13:51;;;;;;;2.10;0.60;;;;;;;16.66;54.15;95057.91;10391893;28;20060;-23
2022/04/07 08:18:52;;;;;;;1.90;0.80;;;;;;;16.66;54.47;95053.69;10387065;28;20030;-23
2022/04/07 08:23:53;;;;;;;3.03;1.27;;;;;;;16.66;57.28;95041.06;10392042;28;20106;-22
2022/04/07 08:28:53;;;;;;;7.05;1.10;;;;;;;16.72;57.74;95023.25;10389627;28;20300;-22
2022/04/07 08:33:53;;;;;;;3.13;1.20;;;;;;;16.72;55.55;94999.69;10392937;28;20044;-21
2022/04/07 08:38:54;;;;;;;3.65;1.25;;;;;;;16.68;54.12;95021.63;10391989;28;20124;-22
2022/04/07 08:43:54;;;;;;;4.83;1.20;;;;;;;16.65;55.95;95018.34;10389262;28;20057;-21
2022/04/07 08:48:56;;;;;;;3.33;1.00;;;;;;;16.65;54.11;95011.59;10387428;28;20022;-22
2022/04/07 08:53:57;;;;;;;2.58;1.08;;;;;;;16.66;54.13;95023.38;10391980;28;20510;-21
2022/04/07 08:58:57;;;;;;;7.65;1.95;;;;;;;16.68;54.38;95021.63;10390288;28;20124;-23
2022/04/07 09:03:57;;;;;;;7.43;2.80;;;;;;;16.67;54.34;95025.03;10382802;28;20040;-23
2022/04/07 09:09:09;;;;;;;71.43;5.70;;;;;;;16.67;55.71;95003.97;10388098;28;20026;-23
2022/04/07 09:14:11;;;;;;;18.58;3.60;;;;;;;16.67;55.02;95004.81;10384636;28;20414;-22
2022/04/07 09:19:11;;;;;;;14.38;2.40;;;;;;;16.66;55.19;94997.25;10394627;28;20141;-22
2022/04/07 09:24:11;;;;;;;5.87;1.57;;;;;;;16.66;55.05;95003.16;10396981;28;20033;-21
2022/04/07 09:29:15;;;;;;;4.32;1.40;;;;;;;16.66;54.86;94967.78;10395878;28;20440;-24
2022/04/07 09:34:29;;;;;;;7.32;1.77;;;;;;;16.71;58.50;94970.22;10400102;28;20055;-21
2022/04/07 09:39:29;;;;;;;6.15;1.42;;;;;;;16.73;55.50;94971.00;10393284;28;20648;-21
2022/04/07 09:44:37;;;;;;;4.97;1.45;;;;;;;16.75;54.31;94977.69;10395379;28;20116;-22
2022/04/07 09:49:37;;;;;;;4.28;1.73;;;;;;;16.71;54.54;94976.09;10395996;28;20022;-22
2022/04/07 09:54:43;;;;;;;3.45;1.60;;;;;;;16.66;54.26;94982.94;10398172;28;20030;-22
2022/04/07 09:59:45;;;;;;;3.88;1.38;;;;;;;16.67;54.42;94969.44;10397221;28;20042;-22
2022/04/07 10:04:46;;;;;;;4.55;1.40;;;;;;;16.64;54.50;94946.78;10390115;28;20033;-23
2022/04/07 10:09:47;;;;;;;5.10;1.85;;;;;;;16.65;54.63;94953.50;10401116;28;20041;-22
2022/04/07 10:14:48;;;;;;;5.75;1.20;;;;;;;16.64;54.29;94938.38;10393697;28;20041;-21
2022/04/07 10:19:53;;;;;;;10.65;2.30;;;;;;;16.67;54.48;94945.88;10393461;28;20029;-22
2022/04/07 10:24:57;;;;;;;4.90;2.20;;;;;;;16.67;54.28;94934.91;10393973;28;20045;-22
2022/04/07 10:30:04;;;;;;;6.45;2.40;;;;;;;16.63;55.60;94937.53;10387765;28;20489;-21
2022/04/07 10:35:06;;;;;;;7.18;1.23;;;;;;;16.67;54.78;94940.81;10394200;28;20037;-22
2022/04/07 10:40:31;;;;;;;8.25;2.25;;;;;;;16.71;59.00;94907.88;10388098;28;20490;-22
2022/04/07 10:45:33;;;;;;;5.97;1.20;;;;;;;16.72;59.74;94901.97;10395271;28;20030;-23
2022/04/07 10:50:34;;;;;;;7.78;2.08;;;;;;;16.73;56.74;94921.31;10392282;28;20022;-23
2022/04/07 10:55:58;;;;;;;2.30;1.20;;;;;;;16.73;55.30;94916.28;10396991;28;20448;-23
2022/04/07 11:00:59;;;;;;;3.00;1.30;;;;;;;16.68;54.73;94910.47;10398206;28;20073;-22
2022/04/07 11:06:03;;;;;;;3.03;2.13;;;;;;;16.66;54.87;94906.31;10392238;28;20525;-22
2022/04/07 11:11:03;;;;;;;2.42;1.08;;;;;;;16.67;54.66;94908.81;10395028;28;20052;-21
2022/04/07 11:16:14;;;;;;;2.77;1.63;;;;;;;16.65;55.39;94918.13;10383351;28;20088;-21
2022/04/07 11:21:14;;;;;;;6.47;1.58;;;;;;;16.69;55.10;94927.28;10396034;28;20029;-24
2022/04/07 11:26:20;;;;;;;2.50;1.07;;;;;;;16.67;54.73;94876.78;10396143;28;20034;-23
2022/04/07 11:31:41;;;;;;;3.28;1.48;;;;;;;16.67;54.96;94866.69;10391981;28;20026;-22
2022/04/07 11:36:42;;;;;;;2.10;1.17;;;;;;;16.67;54.88;94869.22;10385168;28;20038;-24
2022/04/07 11:41:43;;;;;;;4.00;1.23;;;;;;;16.67;54.65;94870.06;10393335;28;20042;-22
2022/04/07 11:46:43;;;;;;;3.92;1.50;;;;;;;16.69;58.21;94861.59;10387126;28;20060;-22
2022/04/07 11:51:46;;;;;;;5.63;1.40;;;;;;;16.70;60.69;94891.06;10392943;28;20033;-22
2022/04/07 11:56:47;;;;;;;6.15;1.63;;;;;;;16.73;59.57;94853.09;10396231;28;20041;-22
2022/04/07 12:01:49;;;;;;;3.03;1.02;;;;;;;16.71;55.53;94852.28;10389640;28;20547;-22
2022/04/07 12:06:50;;;;;;;2.42;1.13;;;;;;;16.69;54.85;94881.81;10385766;28;20038;-22
2022/04/07 12:11:51;;;;;;;3.23;1.30;;;;;;;16.67;54.55;94863.34;10394364;28;20403;-22
2022/04/07 12:16:51;;;;;;;2.28;0.95;;;;;;;16.69;54.86;94855.75;10381478;28;20042;-21
2022/04/07 12:21:57;;;;;;;2.87;1.53;;;;;;;16.67;54.71;94857.44;10390976;28;20034;-23
2022/04/07 12:26:59;;;;;;;2.75;1.23;;;;;;;16.62;54.74;94855.03;10390237;28;20280;-21
2022/04/07 12:32:04;;;;;;;2.45;1.10;;;;;;;16.67;54.94;94863.34;10398472;28;20101;-22
2022/04/07 12:37:05;;;;;;;3.00;1.05;;;;;;;16.67;54.79;94857.44;10392732;28;20033;-22
2022/04/07 12:42:08;;;;;;;2.58;1.27;;;;;;;16.66;54.50;94849.06;10388594;28;20481;-22
2022/04/07 12:47:16;;;;;;;2.35;1.02;;;;;;;16.67;54.56;94807.75;10387261;28;20030;-21
2022/04/07 12:52:18;;;;;;;0.93;0.60;;;;;;;16.65;54.75;94804.44;10401853;28;20025;-22
2022/04/07 12:57:18;;;;;;;4.35;1.80;;;;;;;16.69;58.51;94841.41;10398515;28;20034;-22
2022/04/07 13:02:19;;;;;;;6.07;1.40;;;;;;;16.75;60.88;94816.00;10395290;28;20029;-23
2022/04/07 13:07:21;;;;;;;4.75;1.40;;;;;;;16.74;60.64;94832.03;10395435;28;20675;-23
2022/04/07 13:12:21;;;;;;;5.78;1.13;;;;;;;16.72;56.28;94807.66;10400005;28;20041;-21
2022/04/07 13:17:21;;;;;;;1.60;0.87;;;;;;;16.72;55.31;94810.19;10391696;28;20436;-22
2022/04/07 13:22:24;;;;;;;2.53;0.90;;;;;;;16.62;54.88;94809.56;10388824;28;20300;-23
2022/04/07 13:27:24;;;;;;;1.80;0.90;;;;;;;16.69;54.59;94800.97;10396169;28;20033;-23
2022/04/07 13:32:25;;;;;;;1.52;0.93;;;;;;;16.67;54.62;94807.75;10403753;28;20041;-22
2022/04/07 13:37:25;;;;;;;2.83;1.00;;;;;;;16.61;55.03;94802.84;10379658;28;20036;-23
2022/04/07 13:42:26;;;;;;;1.43;0.60;;;;;;;16.69;54.80;94773.19;10394952;28;20025;-22
2022/04/07 13:47:26;;;;;;;2.20;0.85;;;;;;;16.69;54.47;94793.41;10392922;28;20045;-22
2022/04/07 13:52:27;;;;;;;2.73;1.00;;;;;;;16.68;54.61;94769.00;10393525;28;20041;-22
2022/04/07 13:57:27;;;;;;;2.13;1.35;;;;;;;16.70;54.42;94792.53;10395630;28;20240;-22
2022/04/07 14:02:29;;;;;;;1.37;0.63;;;;;;;16.71;54.60;94756.28;10391346;28;20034;-24
2022/04/07 14:07:30;;;;;;;18.38;2.40;;;;;;;16.73;58.89;94728.47;10387478;28;20032;-23
2022/04/07 14:12:30;;;;;;;9.73;4.33;;;;;;;16.77;62.10;94730.06;10397266;28;20017;-22
2022/04/07 14:17:30;;;;;;;11.55;2.83;;;;;;;16.76;61.79;94711.53;10382943;28;20586;-22
2022/04/07 14:22:31;;;;;;;4.18;1.48;;;;;;;16.73;56.60;94732.66;10383649;28;20056;-24
2022/04/07 14:27:31;;;;;;;2.37;1.07;;;;;;;16.71;54.98;94703.22;10394140;28;20116;-22
2022/04/07 14:32:31;;;;;;;1.00;0.80;;;;;;;16.62;54.71;94660.53;10406174;28;20469;-22
2022/04/07 14:37:32;;;;;;;1.60;0.77;;;;;;;16.70;54.65;94671.25;10385491;28;20510;-22
2022/04/07 14:42:32;;;;;;;2.90;0.90;;;;;;;16.61;54.98;94646.22;10398992;28;20039;-21
2022/04/07 14:47:36;;;;;;;2.50;1.00;;;;;;;16.69;54.73;94694.06;10389739;28;20061;-23
2022/04/07 14:52:37;;;;;;;2.50;1.05;;;;;;;16.68;55.01;94667.94;10392048;28;20034;-22
2022/04/07 14:57:37;;;;;;;2.47;1.00;;;;;;;16.67;54.87;94673.03;10393084;28;20026;-22
2022/04/07 15:02:38;;;;;;;3.77;0.80;;;;;;;16.69;54.44;94673.84;10392385;28;20413;-21
2022/04/07 15:07:38;;;;;;;1.90;1.00;;;;;;;16.67;54.75;94658.72;10392079;28;20284;-23
2022/04/07 15:12:39;;;;;;;1.63;1.10;;;;;;;16.67;54.33;94677.22;10395670;28;20075;-22
2022/04/07 15:17:40;;;;;;;4.00;1.25;;;;;;;16.72;60.38;94689.75;10381115;28;20642;-22
2022/04/07 15:22:40;;;;;;;3.45;0.98;;;;;;;16.77;61.90;94698.03;10394570;28;20037;-22
2022/04/07 15:27:42;;;;;;;1.80;1.00;;;;;;;16.73;59.37;94680.47;10392450;28;20034;-22
2022/04/07 15:32:43;;;;;;;1.52;0.77;;;;;;;16.73;56.21;94700.66;10396683;28;20429;-22
2022/04/07 15:37:43;;;;;;;1.08;0.70;;;;;;;16.69;55.05;94704.97;10393609;28;20032;-22
2022/04/07 15:42:44;;;;;;;0.87;0.50;;;;;;;16.70;55.17;94680.56;10384462;28;20410;-23
2022/04/07 15:47:53;;;;;;;1.33;0.70;;;;;;;16.69;55.07;94710.03;10459182;28;20464;-23
2022/04/07 15:52:53;;;;;;;2.53;1.30;;;;;;;16.69;54.83;94694.88;10444573;28;20466;-23
2022/04/07 15:57:53;;;;;;;3.47;0.70;;;;;;;16.70;54.92;94715.91;10445955;28;20059;-25
2022/04/07 16:02:54;;;;;;;2.57;0.80;;;;;;;16.69;55.20;94699.91;10438911;28;20295;-23
2022/04/07 16:07:54;;;;;;;1.10;0.60;;;;;;;16.68;54.84;94690.69;10440204;28;20041;-23
2022/04/07 16:12:55;;;;;;;0.47;0.47;;;;;;;16.70;54.82;94719.25;10445287;28;20037;-23
2022/04/07 16:17:56;;;;;;;1.23;0.80;;;;;;;16.69;54.89;94716.78;10444165;28;20044;-23
2022/04/07 16:22:57;;;;;;;1.92;0.65;;;;;;;16.67;54.75;94737.84;10443689;28;20060;-23
2022/04/07 16:27:58;;;;;;;3.08;1.05;;;;;;;16.72;61.55;94747.88;10444701;28;20400;-24
2022/04/07 16:32:58;;;;;;;3.28;1.10;;;;;;;16.76;61.29;94754.50;10443581;28;20029;-23
2022/04/07 16:37:58;;;;;;;1.73;0.80;;;;;;;16.73;58.57;94757.09;10439005;28;20495;-23
2022/04/07 16:42:59;;;;;;;1.47;0.60;;;;;;;16.74;55.22;94753.69;10443777;28;20031;-22
2022/04/07 16:48:01;;;;;;;1.27;0.50;;;;;;;16.73;55.23;94767.19;10443212;28;20091;-23
2022/04/07 16:53:03;;;;;;;2.70;0.73;;;;;;;16.72;55.07;94764.69;10441226;28;20488;-23
2022/04/07 16:58:03;;;;;;;1.13;0.55;;;;;;;16.72;55.07;94764.69;10422961;28;20029;-23
2022/04/07 17:03:04;;;;;;;0.70;0.50;;;;;;;16.66;54.98;94758.09;10413691;28;20083;-22
2022/04/07 17:08:06;;;;;;;1.75;0.90;;;;;;;16.69;54.87;94747.91;10410084;28;20291;-23
2022/04/07 17:13:07;;;;;;;3.10;0.70;;;;;;;16.72;56.14;94775.66;10413425;28;20041;-22
2022/04/07 17:18:08;;;;;;;1.10;0.60;;;;;;;16.67;55.17;94758.06;10413392;28;20091;-23
2022/04/07 17:23:08;;;;;;;1.40;0.70;;;;;;;16.69;54.72;94754.69;10409129;28;20086;-25
2022/04/07 17:28:09;;;;;;;0.93;0.52;;;;;;;16.71;54.50;94793.38;10415147;28;20567;-23
2022/04/07 17:33:10;;;;;;;0.90;0.50;;;;;;;16.70;54.46;94766.44;10406920;28;20045;-23
2022/04/07 17:38:10;;;;;;;2.65;0.77;;;;;;;16.77;60.88;94764.56;10413475;28;20036;-22
2022/04/07 17:43:12;;;;;;;10.57;1.30;;;;;;;16.81;59.89;94781.28;10413924;28;20040;-22
2022/04/07 17:48:14;;;;;;;3.25;0.60;;;;;;;16.78;55.96;94790.66;10413623;28;20048;-23
2022/04/07 17:53:14;;;;;;;4.68;0.80;;;;;;;16.69;55.42;94779.94;10411750;28;20025;-23
2022/04/07 17:58:15;;;;;;;2.83;0.90;;;;;;;16.77;55.18;94798.28;10413972;28;20484;-23
2022/04/07 18:03:15;;;;;;;2.70;1.03;;;;;;;16.78;54.91;94808.34;10412747;28;20288;-24
2022/04/07 18:08:16;;;;;;;1.23;0.67;;;;;;;16.79;55.14;94823.47;10406640;28;20781;-23
2022/04/07 18:13:17;;;;;;;2.53;0.88;;;;;;;16.79;55.56;94843.69;10412854;28;20474;-23
2022/04/07 18:18:17;;;;;;;0.85;0.60;;;;;;;16.78;55.41;94847.06;10414290;28;20037;-22
2022/04/07 18:23:17;;;;;;;2.37;0.77;;;;;;;16.79;54.99;94860.53;10410737;28;20395;-23
2022/04/07 18:28:18;;;;;;;1.25;0.50;;;;;;;16.78;54.99;94881.59;10412877;28;20586;-23
2022/04/07 18:33:19;;;;;;;1.33;0.80;;;;;;;16.75;55.61;94917.88;10411006;28;20029;-24
2022/04/07 18:38:19;;;;;;;6.15;0.90;;;;;;;16.73;56.93;94894.34;10407760;28;20334;-23
2022/04/07 18:43:19;;;;;;;11.20;1.07;;;;;;;16.82;59.77;94906.78;10411499;28;20029;-23
2022/04/07 18:48:21;;;;;;;2.00;0.80;;;;;;;16.83;60.56;94920.25;10409021;28;20099;-22
2022/04/07 18:53:22;;;;;;;1.52;0.60;;;;;;;16.84;57.03;94932.03;10403739;28;20603;-22
2022/04/07 18:58:24;;;;;;;1.95;0.50;;;;;;;16.82;56.85;94969.13;10405399;28;20041;-23
2022/04/07 19:03:24;;;;;;;0.85;0.50;;;;;;;16.83;56.70;95003.66;10393773;28;20035;-23
2022/04/07 19:08:24;;;;;;;0.90;0.47;;;;;;;16.79;56.27;95020.56;10401526;28;20042;-23
2022/04/07 19:13:25;;;;;;;1.03;0.50;;;;;;;16.78;55.67;95013.00;10406372;28;20288;-24
2022/04/07 19:18:26;;;;;;;2.08;0.70;;;;;;;16.79;55.98;95032.34;10405787;28;20047;-23
2022/04/07 19:23:26;;;;;;;1.67;0.60;;;;;;;16.76;55.85;95060.22;10400441;28;20416;-23
2022/04/07 19:28:27;;;;;;;2.40;0.60;;;;;;;16.77;56.17;95044.19;10406915;28;20499;-23
2022/04/07 19:33:27;;;;;;;1.35;0.50;;;;;;;16.76;55.16;95034.94;10398967;28;20375;-23
2022/04/07 19:38:28;;;;;;;1.08;0.40;;;;;;;16.76;55.52;95070.34;10395810;28;20044;-23
2022/04/07 19:43:29;;;;;;;3.80;1.30;;;;;;;16.79;60.80;95085.41;10405817;28;20427;-23
2022/04/07 19:48:29;;;;;;;1.67;0.65;;;;;;;16.78;61.08;95083.75;10404523;28;20220;-23
2022/04/07 19:53:29;;;;;;;0.80;0.50;;;;;;;16.80;58.10;95076.97;10401205;28;20415;-24
2022/04/07 19:58:30;;;;;;;2.53;0.80;;;;;;;16.77;56.06;95082.09;10402936;28;20179;-23
2022/04/07 20:03:30;;;;;;;0.90;0.47;;;;;;;16.74;55.11;95095.63;10403523;28;20442;-22
2022/04/07 20:08:32;;;;;;;0.60;0.50;;;;;;;16.67;54.98;95070.50;10400477;28;20312;-23
2022/04/07 20:13:32;;;;;;;1.80;0.80;;;;;;;16.74;55.31;95084.69;10403256;28;20095;-23
2022/04/07 20:18:33;;;;;;;0.83;0.30;;;;;;;16.73;55.05;95112.50;10397235;28;20087;-24
2022/04/07 20:23:36;;;;;;;1.25;0.32;;;;;;;16.73;54.90;95093.13;10391655;28;20331;-23
2022/04/07 20:28:37;;;;;;;0.90;0.55;;;;;;;16.72;54.77;95109.16;10410570;28;20633;-22
2022/04/07 20:33:37;;;;;;;0.73;0.43;;;;;;;16.74;54.92;95117.53;10411749;28;20041;-23
2022/04/07 20:38:38;;;;;;;2.07;0.50;;;;;;;16.74;55.20;95112.50;10410573;28;20411;-22
2022/04/07 20:43:39;;;;;;;0.70;0.50;;;;;;;16.73;55.21;95117.56;10417641;28;20495;-22
2022/04/07 20:48:40;;;;;;;1.45;0.65;;;;;;;16.80;58.03;95112.34;10411311;28;20041;-23
2022/04/07 20:53:40;;;;;;;4.33;1.07;;;;;;;16.79;61.78;95108.16;10416579;28;20112;-23
2022/04/07 20:58:40;;;;;;;0.63;0.43;;;;;;;16.79;56.24;95130.91;10418252;28;20371;-22
2022/04/07 21:03:41;;;;;;;1.70;1.33;;;;;;;16.78;55.36;95126.72;10412229;28;20800;-23
2022/04/07 21:08:41;;;;;;;2.45;0.60;;;;;;;16.77;56.08;95148.66;10416740;28;20499;-23
2022/04/07 21:13:42;;;;;;;2.63;0.50;;;;;;;16.79;56.58;95157.03;10418203;28;20114;-24
2022/04/07 21:18:42;;;;;;;2.72;0.70;;;;;;;16.78;56.95;95150.31;10416326;28;20399;-23
2022/04/07 21:23:43;;;;;;;1.30;0.35;;;;;;;16.79;55.60;95181.44;10412901;28;20506;-23
2022/04/07 21:28:43;;;;;;;0.50;0.40;;;;;;;16.79;56.36;95201.66;10417850;28;20118;-24
2022/04/07 21:33:44;;;;;;;0.93;0.40;;;;;;;16.77;56.45;95206.78;10416445;28;20037;-22
2022/04/07 21:38:45;;;;;;;0.50;0.30;;;;;;;16.78;55.40;95200.00;10411728;28;20043;-22
2022/04/07 21:43:46;;;;;;;0.28;0.28;;;;;;;16.80;55.75;95208.38;10417567;28;20032;-24
2022/04/07 21:48:46;;;;;;;2.77;0.70;;;;;;;16.78;58.93;95213.47;10413805;28;20040;-22
2022/04/07 21:53:47;;;;;;;2.53;1.10;;;;;;;16.81;63.68;95212.59;10415783;28;20036;-23
2022/04/07 21:58:47;;;;;;;2.67;0.82;;;;;;;16.81;61.48;95205.03;10415075;28;20036;-23
2022/04/07 22:03:48;;;;;;;0.40;0.30;;;;;;;16.80;56.15;95200.78;10412797;28;20032;-23
2022/04/07 22:08:48;;;;;;;2.30;0.40;;;;;;;16.79;55.57;95216.81;10411028;28;20081;-23
2022/04/07 22:13:48;;;;;;;1.87;0.70;;;;;;;16.79;56.17;95227.78;10413342;28;20025;-22
2022/04/07 22:18:50;;;;;;;2.28;0.57;;;;;;;16.79;55.59;95234.50;10411026;28;20034;-24
2022/04/07 22:23:50;;;;;;;1.33;0.40;;;;;;;16.69;55.83;95253.22;10411555;28;20419;-23
2022/04/07 22:28:51;;;;;;;0.80;0.30;;;;;;;16.77;55.24;95261.50;10412833;28;20136;-23
2022/04/07 22:33:51;;;;;;;1.30;0.30;;;;;;;16.72;55.56;95257.41;10409301;28;20116;-22
2022/04/07 22:38:52;;;;;;;0.95;0.55;;;;;;;16.77;55.35;95279.19;10411233;28;20029;-22
2022/04/07 22:43:52;;;;;;;0.83;0.23;;;;;;;16.75;55.28;95284.28;10412203;28;20025;-22
2022/04/07 22:48:52;;;;;;;1.73;0.43;;;;;;;16.76;55.09;95292.69;10411178;28;20085;-23
2022/04/07 22:53:53;;;;;;;1.57;0.57;;;;;;;16.77;61.97;95312.06;10410316;28;20025;-23
2022/04/07 22:58:53;;;;;;;5.13;0.80;;;;;;;16.77;63.11;95317.97;10412013;28;20025;-23
2022/04/07 23:03:53;;;;;;;2.60;0.70;;;;;;;16.79;61.81;95333.06;10406148;28;20328;-23
2022/04/07 23:08:54;;;;;;;0.83;0.30;;;;;;;16.80;56.98;95324.63;10406175;28;20296;-22
2022/04/07 23:13:54;;;;;;;0.53;0.30;;;;;;;16.78;55.77;95331.41;10411315;28;20025;-22
2022/04/07 23:18:55;;;;;;;0.50;0.40;;;;;;;16.77;55.96;95323.88;10409444;28;20034;-22